Accueil
METAR-TAF:

METAR-TAF

Aéroports :

Base aérienne de Nörvenich

Nörvenich, Allemagne

latitude: 50-50N, longitude: 006-40E, altitude: 118 m

Observation

Le bulletin a été fait il y a 44 minutes, à 16:20 UTC
Vent 8 kt de nord/nord-ouest
Température 10°C
Humidité 40%
Pression 1025 hPa
Visibilité 10 km ou plus
Quelques nuages à une hauteur de 15000 ft

METAR: ETNN 241620Z 34008KT 9999 FEW150 10/M03 Q1025 BLU+

Heure: 18:04 (17:04 UTC)


TAF: absent

Observations et prévisions météorologiques de plus de 4000 aéroports (messages METAR et TAF).

Les stations disponibles sont représentées par des disques jaunes et rouges sur la carte.

Passer la souris dessus pour voir le nom de la station.

Cliquer dessus pour voir les observations et prévisions météorologiques.

Pour changer de carte: cliquez sur les boutons verts avec une croix noire pour zoomer, sur le bouton vert avec un tiret pour effectuer un zoom arrière, ou sur les flèches vertes pour les cartes adjacentes.


METAR-TAF: